Time;durP1;ratioP1;P1;durP2;ratioP2;P2;SDS_P1;SDS_P2;PMS_P1;PMS_P2;Temp;Humidity;BMP_temperature;BMP_pressure;BME280_temperature;BME280_humidity;BME280_pressure;Samples;Min_cycle;Max_cycle;Signal;HPM_P1;HPM_P2
2023/03/11 00:02:35;;;;;;;2.87;0.90;;;;;;;8.31;47.69;95652.81;6289850;28;20712;-35
2023/03/11 00:05:39;;;;;;;1.27;0.80;;;;;;;8.34;47.51;95660.22;6293042;28;20634;-35
2023/03/11 00:08:41;;;;;;;1.90;0.70;;;;;;;8.38;47.06;95666.59;6290807;28;20742;-35
2023/03/11 00:11:43;;;;;;;1.57;0.83;;;;;;;8.36;47.30;95672.16;6294909;28;20224;-35
2023/03/11 00:14:45;;;;;;;5.33;1.20;;;;;;;8.27;47.36;95664.00;6295419;28;20277;-35
2023/03/11 00:17:48;;;;;;;4.57;0.70;;;;;;;8.27;47.29;95669.31;6295529;28;20718;-35
2023/03/11 00:20:50;;;;;;;3.57;1.00;;;;;;;8.38;47.05;95683.31;6291727;28;20234;-35
2023/03/11 00:23:52;;;;;;;2.60;1.00;;;;;;;8.37;46.99;95668.44;6297753;28;20366;-35
2023/03/11 00:26:54;;;;;;;2.80;0.90;;;;;;;8.37;47.67;95672.94;6289529;28;20253;-35
2023/03/11 00:29:56;;;;;;;3.20;1.00;;;;;;;8.35;47.42;95670.56;6297291;28;20284;-35
2023/03/11 00:32:59;;;;;;;2.20;1.00;;;;;;;8.33;47.55;95671.91;6293203;28;20214;-35
2023/03/11 00:36:01;;;;;;;1.40;0.77;;;;;;;8.34;47.55;95695.50;6288289;28;20309;-35
2023/03/11 00:39:05;;;;;;;2.23;0.73;;;;;;;8.17;47.92;95706.47;6288565;28;20313;-35
2023/03/11 00:42:07;;;;;;;1.77;0.60;;;;;;;8.14;49.57;95743.38;6272713;28;20507;-35
2023/03/11 00:45:10;;;;;;;2.47;0.80;;;;;;;8.14;55.02;95783.16;6287848;28;20215;-35
2023/03/11 00:48:13;;;;;;;1.50;0.57;;;;;;;7.76;53.71;95748.31;6268419;28;20301;-36
2023/03/11 00:51:15;;;;;;;1.93;0.60;;;;;;;7.58;54.70;95762.94;6301075;28;20237;-35
2023/03/11 00:54:17;;;;;;;1.23;0.60;;;;;;;7.39;54.30;95770.69;6273021;28;20202;-35
2023/03/11 00:57:19;;;;;;;1.90;0.73;;;;;;;7.13;54.93;95763.81;6273531;28;20202;-35
2023/03/11 01:00:23;;;;;;;1.87;0.50;;;;;;;7.10;54.70;95780.25;6303871;28;20371;-35
2023/03/11 01:03:25;;;;;;;1.07;0.70;;;;;;;7.03;54.51;95777.06;6293120;28;20722;-35
2023/03/11 01:06:27;;;;;;;1.07;0.70;;;;;;;6.98;55.36;95791.09;6276257;28;20765;-35
2023/03/11 01:09:45;;;;;;;0.87;0.50;;;;;;;7.09;54.27;95786.59;6293719;28;20231;-35
2023/03/11 01:12:47;;;;;;;1.87;0.70;;;;;;;7.09;55.22;95786.59;6295289;28;20317;-35
2023/03/11 01:15:49;;;;;;;2.30;0.70;;;;;;;6.91;55.75;95807.25;6276608;28;20285;-35
2023/03/11 01:18:51;;;;;;;2.13;0.90;;;;;;;6.88;56.45;95783.97;6276377;28;20655;-35
2023/03/11 01:21:53;;;;;;;0.70;0.60;;;;;;;6.87;57.74;95800.13;6310233;28;20703;-35
2023/03/11 01:24:55;;;;;;;1.13;0.70;;;;;;;6.53;55.61;95758.28;6302563;28;20286;-35
2023/03/11 01:27:58;;;;;;;0.90;0.70;;;;;;;6.37;55.53;95775.97;6292179;28;20256;-35
2023/03/11 01:31:00;;;;;;;1.00;0.60;;;;;;;6.64;55.21;95835.78;6293353;28;20738;-35
2023/03/11 01:34:03;;;;;;;1.60;0.80;;;;;;;6.65;52.43;95834.72;6276269;28;20578;-35
2023/03/11 01:37:05;;;;;;;1.33;0.80;;;;;;;6.70;50.15;95821.53;6293059;28;20239;-35
2023/03/11 01:40:13;;;;;;;1.10;0.80;;;;;;;6.72;48.25;95819.41;6293589;28;20241;-35
2023/03/11 01:43:39;;;;;;;0.77;0.77;;;;;;;6.67;46.35;95838.72;6273815;28;20741;-35
2023/03/11 01:46:53;;;;;;;0.77;0.50;;;;;;;6.56;46.98;95846.91;6276866;28;20704;-35
2023/03/11 01:50:00;;;;;;;0.77;0.57;;;;;;;6.60;46.16;95838.19;6291175;28;20314;-35
2023/03/11 01:53:04;;;;;;;0.70;0.70;;;;;;;6.56;47.83;95863.56;6274887;28;20758;-35
2023/03/11 01:56:07;;;;;;;1.27;0.67;;;;;;;6.57;45.59;95849.28;6278570;28;20224;-35
2023/03/11 01:59:13;;;;;;;0.60;0.60;;;;;;;6.43;46.39;95875.44;6293409;28;20234;-35
2023/03/11 02:02:33;;;;;;;0.50;0.50;;;;;;;5.51;46.67;95685.81;6275000;28;20280;-35
2023/03/11 02:05:36;;;;;;;0.80;0.80;;;;;;;6.43;46.44;95916.94;6292677;28;20309;-35
2023/03/11 02:08:40;;;;;;;0.57;0.57;;;;;;;6.21;46.17;95869.53;6291225;28;20237;-35
2023/03/11 02:11:43;;;;;;;0.50;0.50;;;;;;;6.20;46.31;95855.50;6270918;28;20673;-35
2023/03/11 02:14:49;;;;;;;0.87;0.50;;;;;;;6.03;46.36;95832.97;6279563;28;20250;-35
2023/03/11 02:17:52;;;;;;;0.80;0.80;;;;;;;5.94;45.55;95867.81;6292133;28;20238;-35
2023/03/11 02:21:10;;;;;;;0.60;0.60;;;;;;;5.51;46.68;95839.78;6291862;28;20605;-35
2023/03/11 02:24:30;;;;;;;0.60;0.60;;;;;;;5.64;46.59;95843.84;6270332;28;20235;-35
2023/03/11 02:27:37;;;;;;;0.63;0.60;;;;;;;5.32;46.52;95814.84;6292423;28;20231;-35
2023/03/11 02:30:42;;;;;;;0.80;0.60;;;;;;;5.50;46.47;95824.22;6298250;28;20237;-35
2023/03/11 02:33:48;;;;;;;0.40;0.40;;;;;;;5.34;45.86;95842.59;6292972;28;20225;-35
2023/03/11 02:36:51;;;;;;;0.60;0.60;;;;;;;5.35;44.94;95853.94;6274940;28;20227;-35
2023/03/11 02:40:14;;;;;;;1.17;0.60;;;;;;;5.17;44.88;95884.16;6294113;28;20812;-35
2023/03/11 02:43:22;;;;;;;3.50;0.80;;;;;;;4.92;44.56;95858.34;6276327;28;20367;-35
2023/03/11 02:46:25;;;;;;;1.03;0.60;;;;;;;4.88;45.25;95839.59;6269924;28;20230;-35
2023/03/11 02:49:28;;;;;;;0.70;0.70;;;;;;;4.81;44.73;95841.63;6293487;28;20262;-35
2023/03/11 02:52:33;;;;;;;2.63;0.80;;;;;;;4.71;45.07;95935.69;6272451;28;20230;-35
2023/03/11 02:55:35;;;;;;;2.87;0.73;;;;;;;4.59;44.34;95885.75;6292977;28;20363;-35
2023/03/11 02:58:37;;;;;;;0.90;0.63;;;;;;;4.48;44.48;95887.44;6303939;28;20755;-35
2023/03/11 03:01:39;;;;;;;0.67;0.67;;;;;;;4.40;44.58;95895.81;6292244;28;20229;-35
2023/03/11 03:04:42;;;;;;;0.83;0.70;;;;;;;4.36;44.29;95890.22;6276058;28;20266;-34
2023/03/11 03:07:44;;;;;;;2.00;0.60;;;;;;;4.27;44.01;95893.53;6271195;28;20237;-34
2023/03/11 03:10:47;;;;;;;0.93;0.60;;;;;;;4.15;44.14;95848.88;6291626;28;20234;-34
2023/03/11 03:13:49;;;;;;;0.60;0.60;;;;;;;4.17;43.94;95923.19;6273383;28;20233;-34
2023/03/11 03:16:51;;;;;;;1.20;0.87;;;;;;;4.12;44.13;95886.25;6273285;28;20238;-34
2023/03/11 03:19:53;;;;;;;0.67;0.43;;;;;;;4.07;43.96;95886.19;6305238;28;20629;-36
2023/03/11 03:22:55;;;;;;;1.03;0.67;;;;;;;3.84;43.64;95935.44;6277893;28;20299;-36
2023/03/11 03:26:01;;;;;;;2.00;0.60;;;;;;;4.05;42.98;95907.50;6272746;28;20287;-36
2023/03/11 03:29:04;;;;;;;0.77;0.77;;;;;;;3.68;42.31;95866.97;6265923;28;20800;-36
2023/03/11 03:32:06;;;;;;;1.47;0.60;;;;;;;3.93;41.65;95951.59;6271916;28;20726;-36
2023/03/11 03:35:09;;;;;;;2.20;0.60;;;;;;;3.65;41.59;95897.22;6269981;28;20222;-36
2023/03/11 03:38:44;;;;;;;0.50;0.50;;;;;;;3.96;41.83;95945.84;6264519;28;20246;-37
2023/03/11 03:41:46;;;;;;;0.60;0.57;;;;;;;4.06;42.18;95929.38;6264677;28;20231;-36
2023/03/11 03:44:48;;;;;;;1.47;0.63;;;;;;;3.91;41.85;95973.97;6262097;28;20222;-36
2023/03/11 03:47:50;;;;;;;0.87;0.60;;;;;;;3.49;42.16;95898.00;6272551;28;20230;-36
2023/03/11 03:50:54;;;;;;;0.40;0.40;;;;;;;3.66;42.57;95948.84;6263661;28;20601;-36
2023/03/11 03:53:56;;;;;;;0.50;0.50;;;;;;;3.62;42.24;95956.41;6264242;28;20234;-36
2023/03/11 03:56:59;;;;;;;0.70;0.60;;;;;;;3.55;42.93;95950.53;6268925;28;20274;-36
2023/03/11 04:00:07;;;;;;;0.60;0.60;;;;;;;3.53;42.45;95964.94;6266551;28;20736;-36
2023/03/11 04:03:14;;;;;;;0.40;0.40;;;;;;;3.54;42.57;95977.06;6266085;28;20230;-36
2023/03/11 04:06:25;;;;;;;1.23;0.50;;;;;;;3.45;42.00;95937.22;6262342;28;20234;-36
2023/03/11 04:09:41;;;;;;;0.60;0.60;;;;;;;3.04;41.75;95904.16;6265375;28;20337;-36
2023/03/11 04:12:44;;;;;;;0.50;0.50;;;;;;;3.44;42.29;95969.00;6266564;28;20244;-35
2023/03/11 04:15:46;;;;;;;0.73;0.57;;;;;;;3.33;42.35;95952.25;6268172;28;20240;-35
2023/03/11 04:18:48;;;;;;;0.50;0.50;;;;;;;3.24;41.94;95948.41;6265530;28;20253;-35
2023/03/11 04:21:51;;;;;;;0.97;0.67;;;;;;;3.32;41.34;95934.88;6264350;28;20226;-37
2023/03/11 04:24:55;;;;;;;0.97;0.67;;;;;;;3.15;41.98;95945.38;6264692;28;20234;-37
2023/03/11 04:27:57;;;;;;;0.70;0.60;;;;;;;3.01;42.40;95950.16;6263638;28;20225;-36
2023/03/11 04:31:00;;;;;;;0.40;0.40;;;;;;;3.02;42.26;95943.06;6265686;28;20583;-36
2023/03/11 04:34:05;;;;;;;2.53;0.87;;;;;;;3.07;42.14;95962.34;6264072;28;20236;-37
2023/03/11 04:37:09;;;;;;;0.50;0.50;;;;;;;2.98;42.52;95945.34;6267712;28;20700;-37
2023/03/11 04:40:11;;;;;;;0.37;0.33;;;;;;;3.08;41.60;95947.38;6252646;28;20229;-34
2023/03/11 04:43:14;;;;;;;0.50;0.40;;;;;;;3.02;42.63;95950.94;6253719;28;20272;-36
2023/03/11 04:46:16;;;;;;;0.53;0.50;;;;;;;2.76;42.69;95918.16;6241327;28;20297;-34
2023/03/11 04:49:18;;;;;;;0.63;0.50;;;;;;;2.84;41.85;95944.03;6261420;28;20238;-34
2023/03/11 04:52:21;;;;;;;0.93;0.57;;;;;;;2.53;41.86;95874.34;6264719;28;20248;-36
2023/03/11 04:55:24;;;;;;;0.40;0.40;;;;;;;2.91;42.17;95975.47;6295770;28;20238;-34
2023/03/11 04:58:26;;;;;;;0.40;0.40;;;;;;;2.92;41.75;95950.78;6260631;28;20712;-34
2023/03/11 05:01:28;;;;;;;0.50;0.50;;;;;;;2.83;42.03;95977.44;6262241;28;20642;-34
2023/03/11 05:04:34;;;;;;;0.97;0.50;;;;;;;2.88;42.06;95950.44;6267168;28;20241;-34
2023/03/11 05:07:37;;;;;;;0.47;0.47;;;;;;;2.88;42.19;95957.53;6268596;28;20245;-35
2023/03/11 05:10:41;;;;;;;0.47;0.47;;;;;;;2.86;42.10;95957.78;6262938;28;20784;-35
2023/03/11 05:13:44;;;;;;;0.40;0.40;;;;;;;2.80;41.88;95963.94;6263746;28;20356;-36
2023/03/11 05:16:47;;;;;;;0.30;0.30;;;;;;;2.77;41.89;95978.38;6265281;28;20234;-34
2023/03/11 05:19:52;;;;;;;1.47;0.53;;;;;;;2.77;41.71;95959.19;6260628;28;20229;-34
2023/03/11 05:22:59;;;;;;;0.40;0.40;;;;;;;2.76;42.03;95986.50;6294475;28;20231;-34
2023/03/11 05:26:04;;;;;;;2.23;0.40;;;;;;;2.81;41.72;95941.91;6263391;28;20237;-36
2023/03/11 05:29:07;;;;;;;1.47;0.40;;;;;;;1.72;41.50;95800.03;6260483;28;20676;-36
2023/03/11 05:32:09;;;;;;;0.80;0.40;;;;;;;2.83;41.60;95951.13;6264693;28;20339;-35
2023/03/11 05:35:11;;;;;;;0.40;0.40;;;;;;;2.76;41.77;95960.22;6265371;28;20230;-34
2023/03/11 05:38:13;;;;;;;0.70;0.50;;;;;;;2.28;42.07;95854.44;6262213;28;20852;-37
2023/03/11 05:41:17;;;;;;;0.40;0.40;;;;;;;2.80;41.91;95956.06;6264302;28;20230;-36
2023/03/11 05:44:20;;;;;;;0.40;0.40;;;;;;;2.90;41.69;95945.72;6246725;28;20262;-36
2023/03/11 05:47:22;;;;;;;0.40;0.40;;;;;;;2.78;41.63;95976.53;6264151;28;20242;-36
2023/03/11 05:50:24;;;;;;;0.40;0.40;;;;;;;2.56;41.73;95939.56;6268349;28;20724;-36
2023/03/11 05:53:27;;;;;;;0.43;0.40;;;;;;;2.94;41.63;95964.47;6267751;28;20326;-34
2023/03/11 05:56:29;;;;;;;0.83;0.60;;;;;;;3.00;41.78;95960.88;6273185;28;20229;-34
2023/03/11 05:59:32;;;;;;;0.50;0.50;;;;;;;2.89;42.55;95967.00;6266781;28;20231;-36
2023/03/11 06:02:39;;;;;;;0.40;0.40;;;;;;;2.85;42.66;95961.41;6266148;28;20236;-36
2023/03/11 06:05:47;;;;;;;0.50;0.50;;;;;;;3.00;42.77;95963.53;6268920;28;20649;-36
2023/03/11 06:08:49;;;;;;;0.50;0.50;;;;;;;2.67;42.79;95904.56;6266071;28;20244;-36
2023/03/11 06:11:53;;;;;;;0.60;0.50;;;;;;;3.03;43.47;95969.13;6266881;28;20253;-37
2023/03/11 06:14:59;;;;;;;1.47;0.50;;;;;;;3.15;42.64;95936.69;6268633;28;20397;-36
2023/03/11 06:18:01;;;;;;;0.40;0.40;;;;;;;3.20;42.65;95965.72;6266449;28;20231;-36
2023/03/11 06:21:04;;;;;;;0.80;0.77;;;;;;;3.23;42.80;95963.41;6265998;28;20206;-36
2023/03/11 06:24:07;;;;;;;0.93;0.70;;;;;;;3.21;43.21;95985.75;6265165;28;20203;-36
2023/03/11 06:27:10;;;;;;;0.80;0.50;;;;;;;3.22;43.21;95969.72;6265543;28;20373;-36
2023/03/11 06:30:14;;;;;;;0.60;0.60;;;;;;;3.14;43.24;95985.88;6266260;28;20301;-37
2023/03/11 06:33:25;;;;;;;0.67;0.67;;;;;;;3.18;43.60;96007.25;6268147;28;20249;-36
2023/03/11 06:36:27;;;;;;;0.60;0.60;;;;;;;3.20;43.52;96000.75;6267703;28;20298;-36
2023/03/11 06:39:29;;;;;;;0.50;0.50;;;;;;;2.91;43.80;95967.59;6268015;28;20241;-36
2023/03/11 06:42:31;;;;;;;0.90;0.87;;;;;;;3.14;43.65;95998.25;6267364;28;20229;-36
2023/03/11 06:45:34;;;;;;;0.77;0.60;;;;;;;3.24;43.63;96030.00;6268102;28;20237;-39
2023/03/11 06:48:37;;;;;;;0.87;0.70;;;;;;;3.29;43.87;96036.13;6266923;28;20707;-36
2023/03/11 06:51:40;;;;;;;0.70;0.70;;;;;;;3.16;43.97;96007.50;6267439;28;20226;-36
2023/03/11 06:54:44;;;;;;;1.10;0.77;;;;;;;3.20;43.88;96024.41;6265279;28;20233;-37
2023/03/11 06:57:48;;;;;;;1.90;0.90;;;;;;;3.03;44.01;95999.88;6273801;28;20288;-35
2023/03/11 07:00:50;;;;;;;0.60;0.60;;;;;;;3.33;43.87;96042.53;6264475;28;20609;-35
2023/03/11 07:03:53;;;;;;;1.13;0.77;;;;;;;3.39;44.11;96011.03;6264132;28;20234;-35
2023/03/11 07:06:57;;;;;;;1.03;0.60;;;;;;;3.48;43.89;96042.00;6269729;28;20230;-34
2023/03/11 07:09:59;;;;;;;0.80;0.60;;;;;;;3.18;44.09;96028.31;6264297;28;20244;-34
2023/03/11 07:13:02;;;;;;;0.80;0.70;;;;;;;3.35;44.25;96024.69;6265407;28;20245;-34
2023/03/11 07:16:11;;;;;;;0.73;0.60;;;;;;;3.39;44.08;96048.69;6263879;28;20617;-35
2023/03/11 07:19:13;;;;;;;1.07;0.90;;;;;;;3.62;44.54;96037.25;6264488;28;20227;-35
2023/03/11 07:22:16;;;;;;;1.13;0.77;;;;;;;3.45;44.93;96031.16;6269044;28;20236;-35
2023/03/11 07:25:18;;;;;;;0.90;0.80;;;;;;;3.16;44.70;95961.97;6268532;28;20535;-34
2023/03/11 07:28:25;;;;;;;1.03;0.90;;;;;;;3.50;44.87;96055.75;6263521;28;20457;-34
2023/03/11 07:31:31;;;;;;;1.10;0.90;;;;;;;3.29;45.00;95993.25;6268631;28;20245;-38
2023/03/11 07:34:34;;;;;;;0.90;0.90;;;;;;;3.44;44.59;96029.56;6268513;28;20703;-34
2023/03/11 07:37:36;;;;;;;1.63;0.87;;;;;;;3.44;45.18;96032.97;6266773;28;20703;-34
2023/03/11 07:40:38;;;;;;;2.33;1.07;;;;;;;3.47;45.31;96034.34;6272440;28;20738;-35
2023/03/11 07:43:41;;;;;;;2.70;0.70;;;;;;;3.52;44.76;96022.06;6270512;28;20649;-34
2023/03/11 07:46:45;;;;;;;1.00;0.70;;;;;;;3.28;44.70;96008.22;6267893;28;20663;-34
2023/03/11 07:49:47;;;;;;;1.70;0.80;;;;;;;3.52;45.19;96016.00;6265437;28;20229;-35
2023/03/11 07:52:49;;;;;;;0.60;0.60;;;;;;;3.46;45.06;96019.59;6267446;28;20323;-35
2023/03/11 07:55:57;;;;;;;1.00;0.70;;;;;;;4.12;44.30;96031.19;6264874;28;20219;-35
2023/03/11 07:59:00;;;;;;;6.33;0.90;;;;;;;4.64;42.72;96023.72;6265412;28;20607;-35
2023/03/11 08:02:03;;;;;;;1.10;0.97;;;;;;;4.74;42.18;96027.53;6254711;28;20325;-37
2023/03/11 08:05:06;;;;;;;1.30;0.70;;;;;;;5.43;40.84;96054.97;6264971;28;20693;-35
2023/03/11 08:08:08;;;;;;;1.07;0.97;;;;;;;7.06;36.91;96036.81;6644209;22;20869;-74
2023/03/11 08:11:12;;;;;;;0.83;0.83;;;;;;;10.41;31.66;96051.34;6242636;28;20223;-73
2023/03/11 08:14:14;;;;;;;0.83;0.60;;;;;;;13.86;26.25;96055.00;6241188;28;20237;-73
2023/03/11 08:17:16;;;;;;;0.70;0.70;;;;;;;14.29;24.06;96073.28;6249202;28;20234;-73
2023/03/11 08:20:19;;;;;;;0.50;0.50;;;;;;;14.89;23.78;96082.81;6247518;28;20232;-73
2023/03/11 08:23:21;;;;;;;0.90;0.60;;;;;;;15.19;22.33;96108.81;6248984;28;20408;-74
2023/03/11 08:26:24;;;;;;;0.50;0.50;;;;;;;13.96;23.87;96090.69;6244782;28;20231;-72
2023/03/11 08:29:29;;;;;;;0.70;0.50;;;;;;;15.58;22.59;96107.22;6240038;28;20518;-74
2023/03/11 08:32:32;;;;;;;0.50;0.50;;;;;;;15.19;22.24;96127.59;6237974;28;20598;-73
2023/03/11 08:35:34;;;;;;;0.60;0.50;;;;;;;15.22;22.50;96126.16;6240844;28;20321;-73
2023/03/11 08:38:38;;;;;;;0.60;0.60;;;;;;;15.21;22.59;96141.47;6242420;28;20229;-73
2023/03/11 08:41:45;;;;;;;0.63;0.63;;;;;;;13.33;23.40;96132.38;6239966;28;20234;-73
2023/03/11 08:44:47;;;;;;;0.93;0.60;;;;;;;12.85;24.82;96159.41;6244832;28;20711;-74
2023/03/11 08:47:49;;;;;;;0.87;0.63;;;;;;;12.16;26.24;96174.38;6247580;28;20327;-73
2023/03/11 08:50:51;;;;;;;0.77;0.53;;;;;;;11.45;27.04;96184.03;6240774;28;20241;-72
2023/03/11 08:53:55;;;;;;;0.90;0.63;;;;;;;11.23;27.49;96142.69;6238661;28;20247;-73
2023/03/11 08:57:01;;;;;;;0.50;0.50;;;;;;;9.78;29.24;96182.38;6246447;28;20244;-73
2023/03/11 09:00:08;;;;;;;3.13;0.80;;;;;;;7.74;32.80;96236.28;6240953;28;20227;-72
2023/03/11 09:03:14;;;;;;;1.30;0.60;;;;;;;6.75;34.40;96181.44;6228199;28;20338;-73
2023/03/11 09:06:17;;;;;;;0.67;0.53;;;;;;;6.09;35.48;96155.25;6241028;28;20223;-73
2023/03/11 09:09:19;;;;;;;1.03;0.67;;;;;;;6.56;35.51;96194.25;6241648;28;20694;-73
2023/03/11 09:12:21;;;;;;;2.87;0.70;;;;;;;6.46;35.48;96205.56;6224653;28;20238;-73
2023/03/11 09:15:23;;;;;;;0.57;0.53;;;;;;;6.39;36.03;96217.38;6242787;28;20262;-73
2023/03/11 09:18:27;;;;;;;0.70;0.60;;;;;;;6.09;36.89;96236.41;6239436;28;20250;-73
2023/03/11 09:21:29;;;;;;;0.60;0.60;;;;;;;6.11;37.27;96210.53;6246908;28;20227;-73
2023/03/11 09:24:33;;;;;;;0.40;0.40;;;;;;;6.41;36.67;96221.38;6240045;28;20226;-73
2023/03/11 09:27:35;;;;;;;0.43;0.43;;;;;;;6.49;37.19;96253.72;6246408;28;20707;-74
2023/03/11 09:30:38;;;;;;;5.60;0.80;;;;;;;6.70;35.90;96234.34;6247052;28;20231;-74
2023/03/11 09:33:41;;;;;;;1.57;0.70;;;;;;;6.37;35.94;96201.78;6247688;28;20229;-74
2023/03/11 09:36:43;;;;;;;1.60;0.50;;;;;;;6.43;36.58;96250.22;6243454;28;20287;-74
2023/03/11 09:39:46;;;;;;;0.40;0.40;;;;;;;6.23;36.77;96256.09;6238130;28;20263;-74
2023/03/11 09:43:17;;;;;;;0.77;0.47;;;;;;;6.16;36.60;96258.97;6246489;28;20228;-73
2023/03/11 09:46:38;;;;;;;0.47;0.47;;;;;;;6.54;36.35;96285.50;6226032;28;21211;-74
2023/03/11 09:50:18;;;;;;;0.57;0.57;;;;;;;6.33;36.77;96277.38;6248447;28;20304;-74
2023/03/11 09:53:53;;;;;;;0.53;0.53;;;;;;;5.62;37.52;96295.81;6244444;28;20228;-74
2023/03/11 09:56:56;;;;;;;0.50;0.47;;;;;;;5.02;38.94;96307.06;6246913;28;20315;-74
2023/03/11 10:00:01;;;;;;;1.37;0.50;;;;;;;4.76;39.61;96287.41;6250491;28;20303;-73
2023/03/11 10:03:25;;;;;;;0.57;0.50;;;;;;;4.80;39.63;96306.19;6246259;28;20232;-74
2023/03/11 10:06:29;;;;;;;0.67;0.50;;;;;;;5.10;39.68;96332.28;6253468;28;20398;-73
2023/03/11 10:09:42;;;;;;;1.33;0.60;;;;;;;5.07;39.16;96322.19;6246127;28;20239;-73
2023/03/11 10:13:15;;;;;;;4.17;0.40;;;;;;;4.71;38.95;96294.44;6243939;28;20231;-74
2023/03/11 10:16:28;;;;;;;1.13;0.67;;;;;;;4.78;39.54;96361.00;6247611;28;20309;-75
2023/03/11 10:19:55;;;;;;;0.57;0.50;;;;;;;4.85;39.45;96351.13;6245984;28;20322;-72
2023/03/11 10:23:20;;;;;;;0.40;0.40;;;;;;;4.60;39.97;96362.81;6241246;28;20737;-73
2023/03/11 10:26:56;;;;;;;0.30;0.30;;;;;;;4.66;39.64;96361.88;6235662;28;20231;-73
2023/03/11 10:30:29;;;;;;;0.70;0.70;;;;;;;4.80;39.45;96372.16;6248382;28;20599;-74
2023/03/11 10:33:47;;;;;;;0.43;0.43;;;;;;;4.78;39.15;96367.13;6246436;28;20340;-73
2023/03/11 10:37:02;;;;;;;0.70;0.60;;;;;;;4.85;39.43;96394.16;6244608;28;20324;-73
2023/03/11 10:40:30;;;;;;;0.40;0.40;;;;;;;4.80;39.57;96386.13;6242795;28;20236;-73
2023/03/11 10:43:43;;;;;;;0.67;0.40;;;;;;;4.73;39.83;96396.03;6244940;28;20718;-73
2023/03/11 10:46:46;;;;;;;0.70;0.60;;;;;;;4.69;39.79;96388.84;6243747;28;20459;-73
2023/03/11 10:49:49;;;;;;;2.23;0.50;;;;;;;4.40;39.50;96379.06;6239910;28;20255;-72
2023/03/11 10:53:21;;;;;;;3.90;0.53;;;;;;;4.60;39.15;96401.59;6244301;28;20312;-72
2023/03/11 10:56:26;;;;;;;0.50;0.50;;;;;;;4.39;39.84;96414.38;6236290;28;20269;-73
2023/03/11 10:59:33;;;;;;;0.47;0.47;;;;;;;4.28;40.10;96438.13;6238564;28;20336;-73
2023/03/11 11:02:49;;;;;;;0.30;0.30;;;;;;;4.27;40.45;96418.06;6243920;28;20220;-73
2023/03/11 11:06:06;;;;;;;0.40;0.40;;;;;;;4.19;42.72;96429.78;6243108;28;20702;-72
2023/03/11 11:09:16;;;;;;;1.13;0.60;;;;;;;4.34;43.09;96439.84;6195720;28;20233;-73
2023/03/11 11:12:20;;;;;;;0.50;0.43;;;;;;;4.31;43.15;96446.38;6198336;28;20237;-73
2023/03/11 11:15:30;;;;;;;0.67;0.40;;;;;;;3.96;43.35;96414.00;6195828;28;20228;-73
2023/03/11 11:18:41;;;;;;;0.20;0.20;;;;;;;4.01;43.08;96437.81;6201184;28;20235;-73
2023/03/11 11:21:51;;;;;;;0.30;0.30;;;;;;;4.19;43.09;96458.78;6208372;28;20298;-73
2023/03/11 11:24:55;;;;;;;0.40;0.33;;;;;;;3.86;42.09;96399.56;6198349;28;20818;-73
2023/03/11 11:28:01;;;;;;;0.23;0.23;;;;;;;4.27;41.65;96458.41;6202966;28;20308;-73
2023/03/11 11:31:17;;;;;;;0.97;0.30;;;;;;;4.36;41.12;96445.69;6201252;28;20231;-74
2023/03/11 11:34:30;;;;;;;0.30;0.30;;;;;;;4.40;41.00;96463.44;6202785;28;20271;-74
2023/03/11 11:37:36;;;;;;;0.37;0.37;;;;;;;4.40;41.55;96452.91;6197543;28;20314;-72
2023/03/11 11:40:38;;;;;;;0.40;0.40;;;;;;;4.34;41.54;96461.75;6194348;28;21607;-74
2023/03/11 11:43:54;;;;;;;0.30;0.23;;;;;;;4.24;42.27;96458.91;6193543;28;20237;-74
2023/03/11 11:47:03;;;;;;;0.57;0.40;;;;;;;4.11;42.63;96385.34;6192989;28;20243;-74
2023/03/11 11:50:17;;;;;;;0.50;0.47;;;;;;;4.59;42.00;96458.03;6197177;28;20260;-73
2023/03/11 11:53:26;;;;;;;0.60;0.40;;;;;;;4.85;41.33;96448.75;6193927;28;20228;-72
2023/03/11 11:56:29;;;;;;;0.40;0.40;;;;;;;4.84;41.47;96458.50;6199630;28;20228;-73
2023/03/11 11:59:31;;;;;;;0.33;0.30;;;;;;;5.04;40.59;96455.44;6198951;28;20237;-73
2023/03/11 12:02:53;;;;;;;0.30;0.30;;;;;;;4.92;40.92;96455.47;6198160;28;20225;-74
2023/03/11 12:05:59;;;;;;;0.33;0.33;;;;;;;4.78;41.01;96450.72;6196964;28;20233;-73
2023/03/11 12:09:37;;;;;;;0.60;0.47;;;;;;;4.62;41.72;96454.91;6235577;28;20269;-73
2023/03/11 12:12:55;;;;;;;0.97;0.47;;;;;;;4.54;41.89;96463.19;6241023;28;20327;-74
2023/03/11 12:16:30;;;;;;;0.50;0.50;;;;;;;4.48;41.84;96472.00;6249686;28;20223;-73
2023/03/11 12:19:55;;;;;;;0.50;0.50;;;;;;;4.59;41.89;96466.72;6237951;28;21124;-74
2023/03/11 12:23:09;;;;;;;0.63;0.50;;;;;;;4.62;41.42;96470.72;6243729;28;20752;-72
2023/03/11 12:26:20;;;;;;;1.17;0.40;;;;;;;4.50;41.69;96435.69;6237466;28;20233;-72
2023/03/11 12:29:54;;;;;;;0.57;0.57;;;;;;;4.31;41.88;96432.41;6236794;28;20238;-73
2023/03/11 12:33:32;;;;;;;0.50;0.50;;;;;;;4.65;42.13;96472.91;6243393;28;20292;-73
2023/03/11 12:36:45;;;;;;;0.93;0.37;;;;;;;4.59;42.26;96489.66;6191311;28;20663;-73
2023/03/11 12:39:47;;;;;;;0.40;0.40;;;;;;;4.59;42.10;96471.22;6178667;28;20255;-73
2023/03/11 12:42:50;;;;;;;0.50;0.40;;;;;;;4.49;41.97;96507.91;6175806;28;20374;-74
2023/03/11 12:45:54;;;;;;;0.57;0.30;;;;;;;4.36;42.20;96501.03;6174315;28;20836;-73
2023/03/11 12:49:12;;;;;;;0.30;0.30;;;;;;;3.86;42.93;96407.47;6156790;28;20387;-74
2023/03/11 12:52:28;;;;;;;0.57;0.47;;;;;;;4.25;43.64;96467.59;6190491;28;20387;-73
2023/03/11 12:55:33;;;;;;;2.10;0.77;;;;;;;3.85;43.15;96400.63;6190109;28;20957;-74
2023/03/11 12:59:18;;;;;;;0.40;0.40;;;;;;;4.50;43.33;96507.69;6187149;28;20267;-74
2023/03/11 13:02:29;;;;;;;0.40;0.40;;;;;;;4.73;43.05;96516.56;6180171;28;20239;-74
2023/03/11 13:05:58;;;;;;;0.30;0.30;;;;;;;4.87;42.78;96512.63;6189003;28;20237;-74
2023/03/11 13:09:01;;;;;;;0.80;0.30;;;;;;;4.88;43.07;96524.81;6192268;28;20717;-73
2023/03/11 13:12:39;;;;;;;0.60;0.43;;;;;;;4.85;42.34;96541.09;6203337;28;20317;-74
2023/03/11 13:15:41;;;;;;;1.17;0.40;;;;;;;4.74;41.62;96537.47;6254455;28;20307;-73
2023/03/11 13:18:46;;;;;;;0.70;0.30;;;;;;;4.64;42.20;96558.34;6238053;28;20231;-74
2023/03/11 13:21:48;;;;;;;0.53;0.43;;;;;;;4.50;42.89;96567.53;6245432;28;20235;-73
2023/03/11 13:24:51;;;;;;;0.60;0.40;;;;;;;4.45;42.55;96576.13;6242308;28;20231;-73
2023/03/11 13:28:15;;;;;;;0.40;0.40;;;;;;;4.43;42.47;96591.38;6234874;28;20230;-74
2023/03/11 13:31:33;;;;;;;0.40;0.30;;;;;;;4.21;42.53;96601.69;6235940;28;20232;-72
2023/03/11 13:34:39;;;;;;;0.37;0.37;;;;;;;4.11;43.12;96618.06;6236041;28;20878;-73
2023/03/11 13:38:19;;;;;;;0.40;0.40;;;;;;;4.06;43.13;96617.13;6236795;28;20235;-73
2023/03/11 13:41:30;;;;;;;0.30;0.20;;;;;;;4.13;42.79;96604.63;6242726;28;20238;-73
2023/03/11 13:44:38;;;;;;;0.70;0.50;;;;;;;4.14;43.29;96598.38;6240105;28;20318;-74
2023/03/11 13:47:48;;;;;;;0.67;0.40;;;;;;;4.09;42.89;96588.50;6241220;28;20227;-74
2023/03/11 13:51:13;;;;;;;0.30;0.30;;;;;;;4.13;43.36;96612.53;6240204;28;20706;-74
2023/03/11 13:54:21;;;;;;;0.67;0.30;;;;;;;4.16;42.93;96630.56;6228984;28;20235;-75
2023/03/11 13:57:36;;;;;;;0.70;0.50;;;;;;;4.08;43.03;96634.31;6239787;28;20262;-73
2023/03/11 14:00:47;;;;;;;0.57;0.27;;;;;;;4.12;43.18;96637.31;6240088;28;20228;-73
2023/03/11 14:03:50;;;;;;;0.40;0.30;;;;;;;3.90;42.90;96621.22;6239148;28;20283;-73
2023/03/11 14:06:52;;;;;;;0.43;0.40;;;;;;;4.09;42.77;96654.38;6238445;28;20591;-73
2023/03/11 14:10:16;;;;;;;0.33;0.33;;;;;;;4.06;42.79;96656.66;6237550;28;20231;-73
2023/03/11 14:13:21;;;;;;;0.40;0.40;;;;;;;3.90;43.49;96655.47;6230118;28;20341;-72
2023/03/11 14:16:42;;;;;;;0.70;0.50;;;;;;;4.05;43.48;96663.75;6248574;28;20426;-73
2023/03/11 14:20:06;;;;;;;0.70;0.53;;;;;;;3.86;43.77;96626.13;6242750;28;20620;-73
2023/03/11 14:23:17;;;;;;;1.83;0.50;;;;;;;3.96;43.33;96667.75;6223262;28;20228;-73
2023/03/11 14:26:31;;;;;;;0.30;0.30;;;;;;;3.66;43.63;96641.41;6226315;28;20640;-73
2023/03/11 14:29:39;;;;;;;1.03;0.40;;;;;;;3.63;43.32;96641.84;6227118;28;20691;-73
2023/03/11 14:32:41;;;;;;;0.30;0.30;;;;;;;3.87;43.12;96683.06;6247852;28;20222;-73
2023/03/11 14:35:55;;;;;;;0.50;0.40;;;;;;;3.98;41.88;96688.59;6234184;28;20228;-73
2023/03/11 14:38:57;;;;;;;0.47;0.30;;;;;;;3.96;42.08;96680.13;6241888;28;20235;-73
2023/03/11 14:42:17;;;;;;;0.40;0.30;;;;;;;3.95;41.68;96691.69;6238998;28;20255;-73
2023/03/11 14:45:26;;;;;;;0.30;0.20;;;;;;;4.03;41.80;96704.53;6243202;28;20224;-73
2023/03/11 14:48:40;;;;;;;0.53;0.40;;;;;;;3.84;41.66;96694.06;6253579;28;20234;-74
2023/03/11 14:51:43;;;;;;;0.80;0.37;;;;;;;3.89;41.47;96680.19;6247852;28;20224;-74
2023/03/11 14:54:48;;;;;;;0.40;0.30;;;;;;;4.01;41.29;96706.59;6240778;28;20223;-74